Time;durP1;ratioP1;P1;durP2;ratioP2;P2;SDS_P1;SDS_P2;PMS_P1;PMS_P2;Temp;Humidity;BMP_temperature;BMP_pressure;BME280_temperature;BME280_humidity;BME280_pressure;Samples;Min_cycle;Max_cycle;Signal;HPM_P1;HPM_P2
2023/02/03 00:00:05;;;;;;;7.22;4.00;;;;;8.20;99731.00;;;;4936392;29;20050;-63
2023/02/03 00:02:36;;;;;;;4.38;3.90;;;;;8.30;99728.00;;;;4936464;29;20044;-63
2023/02/03 00:05:03;;;;;;;6.07;4.18;;;;;8.30;99741.00;;;;4935930;29;20091;-62
2023/02/03 00:07:30;;;;;;;5.97;3.45;;;;;8.20;99730.00;;;;4936336;29;20047;-63
2023/02/03 00:09:56;;;;;;;6.15;3.53;;;;;8.20;99725.00;;;;4936441;29;20043;-63
2023/02/03 00:12:23;;;;;;;6.32;3.03;;;;;8.20;99732.00;;;;4936188;29;20044;-62
2023/02/03 00:14:50;;;;;;;4.72;3.30;;;;;8.30;99735.00;;;;4935568;29;20051;-63
2023/02/03 00:17:16;;;;;;;7.13;3.75;;;;;8.30;99743.00;;;;4936177;29;20063;-62
2023/02/03 00:19:43;;;;;;;4.43;3.30;;;;;8.20;99746.00;;;;4936078;29;20067;-63
2023/02/03 00:22:09;;;;;;;6.97;3.25;;;;;8.20;99734.00;;;;4935943;29;20051;-63
2023/02/03 00:24:36;;;;;;;4.60;3.00;;;;;8.20;99748.00;;;;4935446;29;20032;-63
2023/02/03 00:27:02;;;;;;;6.88;3.55;;;;;8.30;99749.00;;;;4935827;29;20079;-62
2023/02/03 00:29:29;;;;;;;4.13;2.90;;;;;8.30;99752.00;;;;4918691;29;20051;-63
2023/02/03 00:31:57;;;;;;;3.55;2.90;;;;;8.30;99751.00;;;;4935854;29;20039;-63
2023/02/03 00:34:28;;;;;;;3.20;2.60;;;;;8.30;99741.00;;;;4935208;29;20496;-63
2023/02/03 00:36:56;;;;;;;5.60;3.20;;;;;8.30;99740.00;;;;4935843;29;20048;-63
2023/02/03 00:39:22;;;;;;;3.33;2.97;;;;;8.20;99731.00;;;;4918572;29;20051;-63
2023/02/03 00:41:49;;;;;;;5.57;2.95;;;;;8.20;99718.00;;;;4918713;29;20055;-63
2023/02/03 00:44:15;;;;;;;4.63;3.00;;;;;8.30;99715.00;;;;4935151;29;20040;-62
2023/02/03 00:46:42;;;;;;;3.70;2.90;;;;;8.30;99697.00;;;;4935801;29;20413;-63
2023/02/03 00:49:08;;;;;;;4.38;2.80;;;;;8.30;99702.00;;;;4918359;29;20062;-63
2023/02/03 00:51:35;;;;;;;4.47;3.00;;;;;8.20;99703.00;;;;4918423;29;20055;-64
2023/02/03 00:54:01;;;;;;;3.50;2.50;;;;;8.20;99701.00;;;;4935499;29;20500;-61
2023/02/03 00:56:28;;;;;;;3.53;2.80;;;;;8.20;99714.00;;;;4936371;29;20051;-62
2023/02/03 00:58:55;;;;;;;3.08;2.33;;;;;8.20;99736.00;;;;4937904;29;20088;-62
2023/02/03 01:01:21;;;;;;;4.05;2.50;;;;;8.20;99726.00;;;;4921013;29;20058;-63
2023/02/03 01:03:49;;;;;;;2.97;2.50;;;;;8.20;99728.00;;;;4920280;29;20056;-62
2023/02/03 01:06:18;;;;;;;5.78;2.78;;;;;8.30;99721.00;;;;4936850;29;20055;-62
2023/02/03 01:08:46;;;;;;;6.05;2.70;;;;;8.30;99701.00;;;;4921694;29;20505;-64
2023/02/03 01:11:16;;;;;;;3.33;2.28;;;;;8.30;99722.00;;;;4920818;29;20139;-61
2023/02/03 01:13:43;;;;;;;9.50;2.85;;;;;8.20;99716.00;;;;4938249;29;20043;-62
2023/02/03 01:16:12;;;;;;;3.50;2.40;;;;;8.20;99722.00;;;;4918918;29;20059;-62
2023/02/03 01:18:40;;;;;;;2.15;1.95;;;;;8.20;99713.00;;;;4919354;29;20146;-61
2023/02/03 01:21:11;;;;;;;3.45;2.55;;;;;8.20;99716.00;;;;4936380;29;20509;-62
2023/02/03 01:23:37;;;;;;;4.20;2.60;;;;;8.20;99707.00;;;;4935590;29;20063;-61
2023/02/03 01:26:06;;;;;;;4.10;2.38;;;;;8.20;99695.00;;;;4933586;29;20036;-62
2023/02/03 01:28:33;;;;;;;4.28;2.60;;;;;8.20;99683.00;;;;4917229;29;20393;-62
2023/02/03 01:31:14;;;;;;;3.22;2.17;;;;;8.20;99678.00;;;;4916999;29;20047;-63
2023/02/03 01:33:45;;;;;;;3.38;2.53;;;;;8.20;99673.00;;;;4916795;29;20058;-62
2023/02/03 01:36:12;;;;;;;2.80;2.35;;;;;8.20;99662.00;;;;4933399;29;20067;-61
2023/02/03 01:38:39;;;;;;;2.70;2.50;;;;;8.10;99647.00;;;;4934515;29;20047;-61
2023/02/03 01:41:09;;;;;;;2.63;2.40;;;;;8.10;99622.00;;;;4917399;29;20058;-61
2023/02/03 01:43:39;;;;;;;4.63;2.08;;;;;8.00;99609.00;;;;4933901;29;20047;-61
2023/02/03 01:46:19;;;;;;;2.83;2.60;;;;;8.10;99601.00;;;;4933451;29;20067;-61
2023/02/03 01:48:46;;;;;;;2.83;1.95;;;;;8.10;99614.00;;;;4933826;29;20071;-60
2023/02/03 01:51:12;;;;;;;3.03;2.42;;;;;8.10;99636.00;;;;4933853;29;20043;-60
2023/02/03 01:53:39;;;;;;;3.00;2.22;;;;;8.10;99640.00;;;;4933750;29;20047;-62
2023/02/03 01:56:07;;;;;;;2.30;2.10;;;;;8.10;99638.00;;;;4915958;29;20054;-61
2023/02/03 01:58:38;;;;;;;2.67;2.15;;;;;8.10;99629.00;;;;4916926;29;20056;-61
2023/02/03 02:01:05;;;;;;;3.20;2.20;;;;;8.10;99630.00;;;;4916891;29;20047;-60
2023/02/03 02:03:44;;;;;;;2.10;1.77;;;;;8.10;99622.00;;;;4898461;29;1053594;-61
2023/02/03 02:06:13;;;;;;;2.40;2.20;;;;;8.10;99621.00;;;;4933881;29;20043;-60
2023/02/03 02:08:43;;;;;;;2.92;2.17;;;;;8.10;99619.00;;;;4934330;29;20062;-61
2023/02/03 02:11:10;;;;;;;3.30;2.33;;;;;8.10;99612.00;;;;4901290;29;20132;-62
2023/02/03 02:13:40;;;;;;;2.10;1.70;;;;;8.10;99624.00;;;;4933582;29;20036;-62
2023/02/03 02:16:15;;;;;;;3.15;2.15;;;;;8.10;99620.00;;;;4933594;29;20485;-61
2023/02/03 02:19:14;;;;;;;2.35;2.08;;;;;8.10;99622.00;;;;4917650;29;20146;-61
2023/02/03 02:22:09;;;;;;;3.38;2.17;;;;;8.10;99636.00;;;;4917321;29;20055;-61
2023/02/03 02:24:51;;;;;;;;;;;;;8.10;99630.00;;;;4916927;29;20085;-61
2023/02/03 02:27:52;;;;;;;5.13;2.38;;;;;8.00;99622.00;;;;4934005;29;19923;-61
2023/02/03 02:30:49;;;;;;;3.53;2.38;;;;;8.10;99611.00;;;;4917322;29;20044;-61
2023/02/03 02:33:32;;;;;;;2.40;2.20;;;;;8.00;99617.00;;;;4926846;29;20052;-61
2023/02/03 02:36:20;;;;;;;2.42;2.13;;;;;8.10;99612.00;;;;4930321;29;20040;-62
2023/02/03 02:39:11;;;;;;;3.45;2.55;;;;;8.10;99615.00;;;;4935598;29;20051;-61
2023/02/03 02:42:31;;;;;;;2.47;2.28;;;;;8.10;99627.00;;;;4916985;29;20047;-61
2023/02/03 02:45:09;;;;;;;2.97;2.55;;;;;8.10;99625.00;;;;4877627;29;20061;-61
2023/02/03 02:47:36;;;;;;;3.47;2.63;;;;;8.10;99619.00;;;;4894146;29;20052;-61
2023/02/03 02:50:10;;;;;;;4.10;2.88;;;;;8.00;99613.00;;;;4904058;29;20071;-61
2023/02/03 02:52:41;;;;;;;4.22;2.83;;;;;8.00;99619.00;;;;4917077;29;20098;-61
2023/02/03 02:55:31;;;;;;;3.30;2.95;;;;;8.00;99620.00;;;;4916558;29;20059;-62
2023/02/03 02:58:06;;;;;;;3.53;2.50;;;;;8.10;99628.00;;;;4916976;29;20520;-61
2023/02/03 03:00:34;;;;;;;2.70;2.50;;;;;8.10;99635.00;;;;4916984;29;20048;-62
2023/02/03 03:03:21;;;;;;;2.78;2.55;;;;;8.10;99651.00;;;;4916869;29;20047;-63
2023/02/03 03:06:00;;;;;;;4.80;2.83;;;;;8.10;99654.00;;;;4916741;29;20050;-62
2023/02/03 03:08:50;;;;;;;6.13;2.70;;;;;8.10;99656.00;;;;4933789;29;20501;-63
2023/02/03 03:11:17;;;;;;;6.72;2.80;;;;;8.10;99649.00;;;;4933709;29;20047;-62
2023/02/03 03:13:54;;;;;;;3.25;2.85;;;;;8.10;99661.00;;;;4916563;29;20072;-62
2023/02/03 03:16:28;;;;;;;4.38;2.85;;;;;8.10;99672.00;;;;4933002;29;20036;-63
2023/02/03 03:19:11;;;;;;;6.13;3.28;;;;;8.10;99673.00;;;;4916828;29;20123;-62
2023/02/03 03:21:46;;;;;;;4.45;3.20;;;;;8.10;99681.00;;;;4933582;29;20421;-62
2023/02/03 03:24:17;;;;;;;4.40;3.28;;;;;8.10;99685.00;;;;4934950;29;20047;-62
2023/02/03 03:26:53;;;;;;;4.13;3.45;;;;;8.10;99697.00;;;;4937042;29;20497;-62
2023/02/03 03:29:34;;;;;;;5.80;3.63;;;;;8.10;99704.00;;;;4936942;29;20114;-62
2023/02/03 03:32:01;;;;;;;5.95;3.33;;;;;8.10;99713.00;;;;4937264;29;20052;-62
2023/02/03 03:34:29;;;;;;;5.97;3.70;;;;;8.10;99706.00;;;;4936515;29;20062;-62
2023/02/03 03:37:40;;;;;;;4.78;3.38;;;;;8.10;99708.00;;;;4936405;29;20460;-62
2023/02/03 03:40:15;;;;;;;5.85;4.00;;;;;8.10;99704.00;;;;4896298;29;20456;-61
2023/02/03 03:42:53;;;;;;;4.60;3.90;;;;;8.10;99691.00;;;;4896577;29;20052;-61
2023/02/03 03:45:44;;;;;;;4.55;3.33;;;;;8.10;99686.00;;;;4922330;29;20420;-62
2023/02/03 03:48:35;;;;;;;3.50;3.20;;;;;8.20;99669.00;;;;4936695;29;20098;-61
2023/02/03 03:51:16;;;;;;;5.07;3.67;;;;;8.20;99668.00;;;;4936659;29;20119;-61
2023/02/03 03:53:44;;;;;;;6.68;3.80;;;;;8.20;99661.00;;;;4936512;29;20043;-62
2023/02/03 03:56:16;;;;;;;5.10;3.72;;;;;8.20;99653.00;;;;4935826;29;20059;-61
2023/02/03 03:58:45;;;;;;;6.93;3.63;;;;;8.20;99664.00;;;;4936371;29;20040;-62
2023/02/03 04:01:14;;;;;;;6.15;3.90;;;;;8.20;99660.00;;;;4936483;29;20075;-62
2023/02/03 04:03:45;;;;;;;6.57;3.78;;;;;8.20;99660.00;;;;4936634;29;20052;-62
2023/02/03 04:06:12;;;;;;;5.25;3.90;;;;;8.20;99647.00;;;;4936692;29;20052;-61
2023/02/03 04:08:39;;;;;;;6.88;4.30;;;;;8.20;99636.00;;;;4920002;29;20055;-62
2023/02/03 04:11:06;;;;;;;7.25;4.30;;;;;8.20;99635.00;;;;4936700;29;20070;-62
2023/02/03 04:13:32;;;;;;;4.82;3.70;;;;;8.20;99640.00;;;;4919559;29;20577;-61
2023/02/03 04:15:59;;;;;;;5.10;3.65;;;;;8.20;99665.00;;;;4936048;29;20046;-61
2023/02/03 04:18:25;;;;;;;6.43;4.32;;;;;8.20;99676.00;;;;4936610;29;20052;-62
2023/02/03 04:20:52;;;;;;;6.57;4.45;;;;;8.20;99668.00;;;;4936568;29;20535;-62
2023/02/03 04:23:19;;;;;;;6.03;4.30;;;;;8.20;99671.00;;;;4936472;29;20527;-63
2023/02/03 04:25:45;;;;;;;7.13;4.13;;;;;8.20;99665.00;;;;4935768;29;20044;-63
2023/02/03 04:28:12;;;;;;;4.90;4.22;;;;;8.20;99647.00;;;;4936350;29;20505;-62
2023/02/03 04:30:38;;;;;;;7.28;4.38;;;;;8.20;99643.00;;;;4936374;29;20047;-62
2023/02/03 04:33:05;;;;;;;8.90;4.00;;;;;8.20;99639.00;;;;4936426;29;20051;-62
2023/02/03 04:35:31;;;;;;;4.38;3.50;;;;;8.10;99654.00;;;;4917941;29;20118;-62
2023/02/03 04:37:58;;;;;;;6.20;3.80;;;;;8.10;99651.00;;;;4936870;29;20046;-61
2023/02/03 04:40:24;;;;;;;8.05;3.90;;;;;8.10;99656.00;;;;4936556;29;20043;-61
2023/02/03 04:42:51;;;;;;;5.13;3.80;;;;;8.20;99667.00;;;;4936481;29;20055;-61
2023/02/03 04:45:18;;;;;;;4.85;3.90;;;;;8.20;99667.00;;;;4935951;29;20044;-64
2023/02/03 04:47:44;;;;;;;5.43;3.83;;;;;8.20;99661.00;;;;4919173;29;20047;-61
2023/02/03 04:50:11;;;;;;;6.82;3.72;;;;;8.20;99671.00;;;;4936156;29;20055;-61
2023/02/03 04:52:37;;;;;;;5.18;3.75;;;;;8.10;99668.00;;;;4918860;29;20397;-61
2023/02/03 04:55:04;;;;;;;4.97;3.80;;;;;8.10;99671.00;;;;4935280;29;20055;-62
2023/02/03 04:57:30;;;;;;;4.88;3.72;;;;;8.10;99663.00;;;;4935969;29;20382;-62
2023/02/03 04:59:57;;;;;;;4.90;3.50;;;;;8.10;99657.00;;;;4919076;29;20039;-62
2023/02/03 05:02:23;;;;;;;5.82;4.05;;;;;8.20;99649.00;;;;4918773;29;20505;-61
2023/02/03 05:04:50;;;;;;;5.43;3.85;;;;;8.20;99653.00;;;;4918204;29;20142;-62
2023/02/03 05:07:17;;;;;;;3.83;3.42;;;;;8.20;99655.00;;;;4918845;29;20043;-61
2023/02/03 05:09:43;;;;;;;6.18;3.60;;;;;8.20;99652.00;;;;4935608;29;20048;-61
2023/02/03 05:12:10;;;;;;;3.42;3.08;;;;;8.20;99642.00;;;;4935517;29;20485;-61
2023/02/03 05:14:36;;;;;;;5.55;3.60;;;;;8.20;99640.00;;;;4935090;29;20056;-62
2023/02/03 05:17:03;;;;;;;4.78;3.15;;;;;8.20;99641.00;;;;4935810;29;20056;-61
2023/02/03 05:19:29;;;;;;;4.78;3.30;;;;;8.20;99651.00;;;;4935424;29;20075;-61
2023/02/03 05:21:56;;;;;;;5.78;3.35;;;;;8.20;99632.00;;;;4935537;29;20067;-60
2023/02/03 05:24:22;;;;;;;4.93;3.20;;;;;8.20;99633.00;;;;4917952;29;20055;-61
2023/02/03 05:26:49;;;;;;;6.80;3.55;;;;;8.20;99627.00;;;;4935360;29;20126;-62
2023/02/03 05:29:15;;;;;;;4.35;3.22;;;;;8.20;99630.00;;;;4918630;29;20048;-61
2023/02/03 05:31:42;;;;;;;6.78;3.67;;;;;8.20;99634.00;;;;4935322;29;20047;-61
2023/02/03 05:34:09;;;;;;;3.75;2.88;;;;;8.20;99647.00;;;;4934798;29;20441;-61
2023/02/03 05:36:35;;;;;;;4.85;2.63;;;;;8.20;99651.00;;;;4935009;29;20043;-62
2023/02/03 05:39:02;;;;;;;3.83;2.92;;;;;8.10;99633.00;;;;4935182;29;20058;-61
2023/02/03 05:44:27;;;;;;;3.20;2.90;;;;;8.20;99635.00;;;;4918343;29;20059;-61
2023/02/03 05:46:56;;;;;;;4.25;3.10;;;;;8.20;99620.00;;;;4934869;29;20493;-63
2023/02/03 05:49:23;;;;;;;5.03;3.22;;;;;8.20;99631.00;;;;4934934;29;20047;-61
2023/02/03 05:51:54;;;;;;;6.47;3.20;;;;;8.20;99633.00;;;;4935247;29;20044;-60
2023/02/03 05:54:21;;;;;;;4.55;3.15;;;;;8.20;99644.00;;;;4917539;29;20413;-61
2023/02/03 05:56:48;;;;;;;7.47;3.33;;;;;8.20;99642.00;;;;4934939;29;20040;-62
2023/02/03 05:59:14;;;;;;;4.10;3.17;;;;;8.30;99640.00;;;;4934975;29;20048;-60
2023/02/03 06:01:41;;;;;;;5.53;3.40;;;;;8.20;99645.00;;;;4934733;29;20493;-62
2023/02/03 06:04:07;;;;;;;4.30;3.65;;;;;8.20;99640.00;;;;4917312;29;20119;-62
2023/02/03 06:06:34;;;;;;;6.38;3.92;;;;;8.30;99647.00;;;;4917707;29;20043;-63
2023/02/03 06:09:06;;;;;;;5.68;4.00;;;;;8.20;99647.00;;;;4935164;29;20405;-62
2023/02/03 06:11:34;;;;;;;5.43;3.78;;;;;8.20;99637.00;;;;4934980;29;20047;-62
2023/02/03 06:14:01;;;;;;;6.22;3.60;;;;;8.20;99649.00;;;;4934603;29;20061;-65
2023/02/03 06:16:28;;;;;;;3.65;3.28;;;;;8.10;99651.00;;;;4934313;29;20044;-62
2023/02/03 06:18:59;;;;;;;2.90;2.63;;;;;8.10;99644.00;;;;4935386;29;20071;-63
2023/02/03 06:21:27;;;;;;;3.10;2.80;;;;;8.20;99633.00;;;;4939339;29;20052;-64
2023/02/03 06:23:55;;;;;;;3.10;2.80;;;;;8.20;99647.00;;;;4939492;29;20489;-63
2023/02/03 06:26:22;;;;;;;3.90;3.15;;;;;8.20;99647.00;;;;4937670;29;20456;-63
2023/02/03 06:28:48;;;;;;;3.92;2.60;;;;;8.20;99636.00;;;;4937626;29;20051;-61
2023/02/03 06:31:15;;;;;;;4.75;2.85;;;;;8.10;99636.00;;;;4935593;29;20485;-62
2023/02/03 06:33:42;;;;;;;4.35;3.00;;;;;8.10;99607.00;;;;4917868;29;20493;-62
2023/02/03 06:36:08;;;;;;;2.95;2.70;;;;;8.10;99612.00;;;;4934198;29;20048;-62
2023/02/03 06:38:35;;;;;;;4.40;2.85;;;;;8.10;99620.00;;;;4935287;29;20039;-62
2023/02/03 06:41:01;;;;;;;4.32;2.78;;;;;8.10;99610.00;;;;4935086;29;20044;-62
2023/02/03 06:43:28;;;;;;;3.03;2.35;;;;;8.10;99615.00;;;;4934975;29;20047;-62
2023/02/03 06:45:55;;;;;;;2.78;2.58;;;;;8.20;99612.00;;;;4934653;29;20076;-62
2023/02/03 06:48:22;;;;;;;2.28;2.08;;;;;8.20;99620.00;;;;4918566;29;20493;-63
2023/02/03 06:50:49;;;;;;;3.13;2.30;;;;;8.20;99618.00;;;;4934593;29;20478;-62
2023/02/03 06:53:15;;;;;;;4.20;2.40;;;;;8.20;99612.00;;;;4918413;29;20054;-62
2023/02/03 06:55:42;;;;;;;3.95;2.65;;;;;8.30;99616.00;;;;4935802;29;20067;-62
2023/02/03 06:58:09;;;;;;;2.28;2.08;;;;;8.30;99603.00;;;;4936804;29;20099;-61
2023/02/03 07:00:36;;;;;;;4.28;2.30;;;;;8.20;99607.00;;;;4939943;29;20073;-63
2023/02/03 07:03:03;;;;;;;3.75;3.00;;;;;8.30;99607.00;;;;4939089;29;20162;-61
2023/02/03 07:05:30;;;;;;;2.65;2.45;;;;;8.30;99615.00;;;;4939301;29;20051;-64
2023/02/03 07:07:57;;;;;;;3.00;2.45;;;;;8.20;99618.00;;;;4939408;29;20043;-62
2023/02/03 07:10:28;;;;;;;2.50;2.25;;;;;8.20;99629.00;;;;4938377;29;20572;-62
2023/02/03 07:13:01;;;;;;;3.88;2.60;;;;;8.20;99632.00;;;;4939068;29;20508;-62
2023/02/03 07:15:28;;;;;;;3.72;2.28;;;;;8.20;99637.00;;;;4939484;29;20608;-63
2023/02/03 07:17:57;;;;;;;2.55;2.33;;;;;8.20;99650.00;;;;4923498;29;20095;-63
2023/02/03 07:20:28;;;;;;;7.18;2.70;;;;;8.20;99660.00;;;;4923546;29;20047;-62
2023/02/03 07:22:58;;;;;;;2.58;2.22;;;;;8.20;99658.00;;;;4921304;29;20043;-63
2023/02/03 07:25:24;;;;;;;2.90;2.35;;;;;8.20;99655.00;;;;4937583;29;20043;-63
2023/02/03 07:27:51;;;;;;;3.00;2.40;;;;;8.30;99668.00;;;;4937627;29;20052;-63
2023/02/03 07:30:18;;;;;;;2.70;2.33;;;;;8.30;99678.00;;;;4937394;29;20054;-63
2023/02/03 07:32:51;;;;;;;3.35;2.15;;;;;8.20;99686.00;;;;4937727;29;20039;-62
2023/02/03 07:35:19;;;;;;;4.38;2.83;;;;;8.20;99680.00;;;;4937267;29;20051;-62
2023/02/03 07:37:48;;;;;;;4.90;2.50;;;;;8.20;99680.00;;;;4937929;29;20044;-63
2023/02/03 07:40:16;;;;;;;2.97;2.67;;;;;8.20;99694.00;;;;4938014;29;20043;-63
2023/02/03 07:42:45;;;;;;;2.88;2.50;;;;;8.20;99688.00;;;;4937464;29;20055;-62
2023/02/03 07:45:14;;;;;;;4.18;3.00;;;;;8.20;99690.00;;;;4937407;29;20051;-62
2023/02/03 07:47:43;;;;;;;3.90;2.60;;;;;8.20;99688.00;;;;4937895;29;20051;-62
2023/02/03 07:50:13;;;;;;;4.80;3.33;;;;;8.20;99676.00;;;;4905234;29;20058;-62
2023/02/03 07:52:39;;;;;;;5.30;2.95;;;;;8.10;99673.00;;;;4937703;29;20394;-63
2023/02/03 07:55:08;;;;;;;3.25;2.95;;;;;8.10;99684.00;;;;4919740;29;20138;-62
2023/02/03 07:57:44;;;;;;;4.57;3.40;;;;;8.20;99683.00;;;;4938273;29;20091;-63
2023/02/03 08:00:12;;;;;;;7.13;3.60;;;;;8.20;99694.00;;;;4938082;29;20056;-60
2023/02/03 08:02:45;;;;;;;7.15;3.28;;;;;8.20;99673.00;;;;4937681;29;20504;-61
2023/02/03 08:05:13;;;;;;;4.80;3.30;;;;;8.20;99678.00;;;;4937162;29;20047;-61
2023/02/03 08:07:40;;;;;;;5.18;3.35;;;;;8.20;99670.00;;;;4937239;29;20044;-63
2023/02/03 08:10:08;;;;;;;3.55;2.80;;;;;8.20;99691.00;;;;4936802;29;20512;-62
2023/02/03 08:12:34;;;;;;;5.18;2.50;;;;;8.10;99685.00;;;;4919941;29;20091;-61
2023/02/03 08:15:01;;;;;;;3.30;2.35;;;;;8.10;99673.00;;;;4919505;29;20532;-61
2023/02/03 08:17:28;;;;;;;2.70;2.42;;;;;8.20;99679.00;;;;4937237;29;20054;-62
2023/02/03 08:19:55;;;;;;;5.53;2.33;;;;;8.20;99665.00;;;;4919952;29;20146;-62
2023/02/03 08:22:21;;;;;;;3.78;2.30;;;;;8.20;99678.00;;;;4936708;29;20493;-61
2023/02/03 08:24:48;;;;;;;3.67;2.08;;;;;8.20;99684.00;;;;4936315;29;20048;-61
2023/02/03 08:27:17;;;;;;;2.13;2.00;;;;;8.30;99685.00;;;;4936661;29;20043;-61
2023/02/03 08:29:44;;;;;;;3.45;2.33;;;;;8.30;99682.00;;;;4920019;29;20040;-61
2023/02/03 08:32:14;;;;;;;5.00;2.42;;;;;8.20;99694.00;;;;4919568;29;20051;-62
2023/02/03 08:34:41;;;;;;;2.80;2.30;;;;;8.30;99686.00;;;;4935871;29;20508;-62
2023/02/03 08:37:10;;;;;;;2.50;2.20;;;;;8.30;99695.00;;;;4918959;29;20044;-65
2023/02/03 08:39:37;;;;;;;5.43;2.63;;;;;8.30;99694.00;;;;4936862;29;20122;-62
2023/02/03 08:42:04;;;;;;;3.45;2.78;;;;;8.30;99686.00;;;;4936152;29;20048;-62
2023/02/03 08:44:32;;;;;;;3.15;2.50;;;;;8.30;99678.00;;;;4935708;29;20523;-62
2023/02/03 08:46:59;;;;;;;3.13;2.85;;;;;8.30;99672.00;;;;4937217;29;20572;-61
2023/02/03 08:49:28;;;;;;;4.95;2.60;;;;;8.40;99679.00;;;;4936849;29;20048;-62
2023/02/03 08:51:56;;;;;;;2.92;2.55;;;;;8.50;99679.00;;;;4937118;29;20055;-62
2023/02/03 08:54:23;;;;;;;3.35;2.72;;;;;8.50;99687.00;;;;4935690;29;20095;-62
2023/02/03 08:56:50;;;;;;;4.13;2.42;;;;;8.50;99690.00;;;;4919397;29;20043;-62
2023/02/03 08:59:17;;;;;;;3.92;2.80;;;;;8.60;99707.00;;;;4936203;29;20058;-61
2023/02/03 09:01:44;;;;;;;4.22;2.65;;;;;8.50;99692.00;;;;4918754;29;20052;-62
2023/02/03 09:04:12;;;;;;;4.13;3.22;;;;;8.40;99698.00;;;;4935246;29;20047;-62
2023/02/03 09:06:38;;;;;;;3.47;3.00;;;;;8.30;99690.00;;;;4936157;29;20047;-62
2023/02/03 09:09:05;;;;;;;4.93;3.33;;;;;8.40;99693.00;;;;4935765;29;20046;-63
2023/02/03 09:11:31;;;;;;;4.97;4.15;;;;;8.40;99695.00;;;;4935626;29;20501;-63
2023/02/03 09:13:58;;;;;;;7.97;5.00;;;;;8.40;99691.00;;;;4918525;29;20185;-62
2023/02/03 09:16:24;;;;;;;5.88;4.70;;;;;8.50;99695.00;;;;4918067;29;20078;-62
2023/02/03 09:18:51;;;;;;;5.68;4.13;;;;;8.60;99681.00;;;;4935502;29;20051;-61
2023/02/03 09:21:17;;;;;;;4.32;3.13;;;;;8.60;99683.00;;;;4935003;29;20106;-63
2023/02/03 09:24:02;;;;;;;3.17;2.88;;;;;8.70;99686.00;;;;4920894;29;20059;-63
2023/02/03 09:26:29;;;;;;;6.28;3.03;;;;;8.80;99672.00;;;;4935166;29;20497;-61
2023/02/03 09:28:55;;;;;;;5.72;2.67;;;;;8.80;99690.00;;;;4935516;29;20509;-61
2023/02/03 09:31:22;;;;;;;4.35;3.50;;;;;8.80;99668.00;;;;4935363;29;20044;-62
2023/02/03 09:33:49;;;;;;;2.55;2.33;;;;;8.80;99670.00;;;;4935204;29;20054;-62
2023/02/03 09:36:15;;;;;;;3.70;3.40;;;;;8.80;99677.00;;;;4934966;29;20043;-61
2023/02/03 09:38:42;;;;;;;3.25;2.95;;;;;8.80;99677.00;;;;4935194;29;20047;-61
2023/02/03 09:41:46;;;;;;;4.45;2.75;;;;;8.70;99680.00;;;;4935386;29;20044;-63
2023/02/03 09:44:35;;;;;;;3.25;2.85;;;;;8.60;99693.00;;;;4917875;29;20498;-63
2023/02/03 09:47:10;;;;;;;2.63;2.42;;;;;8.60;99691.00;;;;4916685;29;20064;-63
2023/02/03 09:49:46;;;;;;;3.35;2.38;;;;;8.50;99687.00;;;;4935253;29;20054;-61
2023/02/03 09:52:22;;;;;;;4.35;2.50;;;;;8.60;99677.00;;;;4935427;29;20075;-62
2023/02/03 09:54:59;;;;;;;3.33;2.65;;;;;8.80;99682.00;;;;4934892;29;20047;-64
2023/02/03 09:57:30;;;;;;;3.10;2.20;;;;;8.90;99675.00;;;;4935337;29;20044;-63
2023/02/03 10:00:00;;;;;;;2.47;2.00;;;;;9.00;99672.00;;;;4936957;29;20063;-63
2023/02/03 10:02:59;;;;;;;3.83;3.53;;;;;9.10;99660.00;;;;4937075;29;20044;-63
2023/02/03 10:05:45;;;;;;;5.30;2.95;;;;;9.10;99652.00;;;;4934997;29;20043;-63
2023/02/03 10:08:37;;;;;;;7.65;5.03;;;;;9.10;99653.00;;;;4936508;29;20413;-63
2023/02/03 10:11:29;;;;;;;10.65;5.90;;;;;9.00;99652.00;;;;4935776;29;20099;-63
2023/02/03 10:14:08;;;;;;;7.32;4.68;;;;;9.20;99669.00;;;;4938047;29;20048;-63
2023/02/03 10:16:52;;;;;;;5.43;4.10;;;;;9.10;99663.00;;;;4937249;29;20044;-62
2023/02/03 10:19:25;;;;;;;4.90;3.10;;;;;9.10;99662.00;;;;4937255;29;20052;-62
2023/02/03 10:21:56;;;;;;;4.53;2.25;;;;;9.00;99663.00;;;;4937658;29;20055;-63
2023/02/03 10:24:28;;;;;;;5.45;3.75;;;;;9.00;99659.00;;;;4938975;29;20135;-63
2023/02/03 10:26:56;;;;;;;5.13;2.72;;;;;9.00;99660.00;;;;4938703;29;20047;-63
2023/02/03 10:29:44;;;;;;;5.32;2.40;;;;;9.00;99666.00;;;;4936981;29;20497;-62
2023/02/03 10:32:11;;;;;;;3.75;2.05;;;;;9.10;99656.00;;;;4919216;29;20071;-62
2023/02/03 10:34:40;;;;;;;3.33;2.65;;;;;9.20;99654.00;;;;4921949;29;20094;-62
2023/02/03 10:37:22;;;;;;;5.97;3.38;;;;;9.40;99653.00;;;;4940076;29;20051;-62
2023/02/03 10:39:51;;;;;;;3.35;2.17;;;;;9.50;99653.00;;;;4923413;29;20497;-63
2023/02/03 10:42:19;;;;;;;6.90;4.65;;;;;9.60;99655.00;;;;4939396;29;20044;-64
2023/02/03 10:44:56;;;;;;;5.88;4.00;;;;;9.70;99655.00;;;;4939194;29;20050;-63
2023/02/03 10:47:38;;;;;;;5.30;4.18;;;;;9.60;99653.00;;;;4939476;29;20044;-64
2023/02/03 10:50:17;;;;;;;2.35;2.00;;;;;9.50;99644.00;;;;4923070;29;20416;-63
2023/02/03 10:52:43;;;;;;;2.30;1.40;;;;;9.40;99647.00;;;;4939723;29;20047;-63
2023/02/03 10:55:25;;;;;;;2.72;1.60;;;;;9.40;99642.00;;;;4922422;29;20079;-62
2023/02/03 10:57:53;;;;;;;1.30;1.20;;;;;9.30;99643.00;;;;4939018;29;20048;-64
2023/02/03 11:00:27;;;;;;;1.13;0.70;;;;;9.30;99640.00;;;;4938953;29;20127;-66
2023/02/03 11:03:05;;;;;;;1.33;1.00;;;;;9.30;99641.00;;;;4938480;29;20047;-63
2023/02/03 11:05:32;;;;;;;1.35;0.90;;;;;9.30;99642.00;;;;4938076;29;20052;-64
2023/02/03 11:07:59;;;;;;;1.00;0.90;;;;;9.20;99633.00;;;;4938174;29;20046;-63
2023/02/03 11:10:36;;;;;;;0.98;0.98;;;;;9.20;99625.00;;;;4921299;29;20055;-63
2023/02/03 11:13:18;;;;;;;1.42;0.95;;;;;9.20;99616.00;;;;4937945;29;20054;-64
2023/02/03 11:15:51;;;;;;;1.27;0.85;;;;;9.10;99619.00;;;;4937836;29;20043;-63
2023/02/03 11:18:46;;;;;;;1.30;1.15;;;;;9.10;99620.00;;;;4937999;29;20382;-61
2023/02/03 11:21:18;;;;;;;1.58;1.20;;;;;9.10;99639.00;;;;4937967;29;20122;-61
2023/02/03 11:24:14;;;;;;;1.38;1.10;;;;;9.00;99628.00;;;;4937784;29;20051;-64
2023/02/03 11:26:44;;;;;;;1.83;1.30;;;;;9.10;99614.00;;;;4937764;29;20079;-62
2023/02/03 11:29:22;;;;;;;1.30;1.20;;;;;9.10;99599.00;;;;4937975;29;20074;-64
2023/02/03 11:31:52;;;;;;;2.83;1.30;;;;;9.10;99605.00;;;;4937918;29;20048;-65
2023/02/03 11:34:27;;;;;;;1.40;1.00;;;;;9.10;99624.00;;;;4919972;29;20052;-65
2023/02/03 11:36:53;;;;;;;2.13;1.25;;;;;9.00;99617.00;;;;4937680;29;20413;-64
2023/02/03 11:39:29;;;;;;;1.40;1.20;;;;;9.00;99628.00;;;;4920215;29;20048;-63
2023/02/03 11:41:55;;;;;;;1.33;1.05;;;;;9.00;99630.00;;;;4920354;29;20048;-63
2023/02/03 11:44:25;;;;;;;2.03;1.40;;;;;9.10;99641.00;;;;4936503;29;20043;-62
2023/02/03 11:46:59;;;;;;;2.30;1.25;;;;;9.10;99650.00;;;;4920594;29;20056;-64
2023/02/03 11:49:53;;;;;;;2.60;1.80;;;;;9.00;99659.00;;;;4937533;29;20051;-64
2023/02/03 11:52:41;;;;;;;2.53;1.42;;;;;9.00;99668.00;;;;4937391;29;20048;-64
2023/02/03 11:55:14;;;;;;;2.67;1.65;;;;;9.00;99670.00;;;;4936638;29;20047;-63
2023/02/03 11:58:05;;;;;;;1.95;1.23;;;;;8.90;99672.00;;;;4919881;29;20048;-64
2023/02/03 12:01:19;;;;;;;4.75;1.60;;;;;8.80;99684.00;;;;4918842;29;20465;-64
2023/02/03 12:04:20;;;;;;;1.73;1.58;;;;;8.70;99672.00;;;;4896617;29;20053;-64
2023/02/03 12:07:02;;;;;;;1.40;1.27;;;;;8.60;99690.00;;;;4896932;29;20045;-63
2023/02/03 12:09:52;;;;;;;2.42;1.50;;;;;8.60;99685.00;;;;4931933;29;20092;-63
2023/02/03 12:12:18;;;;;;;2.80;1.70;;;;;8.60;99693.00;;;;4919837;29;20051;-63
2023/02/03 12:15:15;;;;;;;1.85;1.58;;;;;8.60;99689.00;;;;4936263;29;20123;-64
2023/02/03 12:17:57;;;;;;;2.75;1.80;;;;;8.60;99680.00;;;;4936686;29;20437;-64
2023/02/03 12:20:34;;;;;;;2.22;1.45;;;;;8.60;99680.00;;;;4936856;29;20043;-63
2023/02/03 12:23:23;;;;;;;2.80;1.50;;;;;8.60;99680.00;;;;4936652;29;20059;-62
2023/02/03 12:26:14;;;;;;;1.95;1.75;;;;;8.60;99675.00;;;;4936206;29;20501;-64
2023/02/03 12:29:00;;;;;;;1.40;1.30;;;;;8.50;99669.00;;;;4919893;29;20046;-62
2023/02/03 12:31:36;;;;;;;3.20;1.50;;;;;8.50;99649.00;;;;4936677;29;20058;-64
2023/02/03 12:34:23;;;;;;;1.50;1.40;;;;;8.50;99630.00;;;;4936281;29;20058;-63
2023/02/03 12:36:57;;;;;;;2.35;1.60;;;;;8.50;99633.00;;;;4936492;29;20122;-64
2023/02/03 12:39:32;;;;;;;2.28;2.08;;;;;8.50;99645.00;;;;4936457;29;20051;-63
2023/02/03 12:42:13;;;;;;;1.77;1.65;;;;;8.50;99636.00;;;;4936282;29;20052;-62
2023/02/03 12:44:46;;;;;;;1.83;1.27;;;;;8.50;99628.00;;;;4935797;29;20043;-63
2023/02/03 12:47:35;;;;;;;2.08;1.60;;;;;8.50;99628.00;;;;4936266;29;20072;-64
2023/02/03 12:50:20;;;;;;;1.63;1.52;;;;;8.60;99625.00;;;;4936097;29;20073;-64
2023/02/03 12:52:59;;;;;;;3.40;1.88;;;;;8.60;99629.00;;;;4936040;29;20132;-63
2023/02/03 12:55:25;;;;;;;1.77;1.67;;;;;8.60;99620.00;;;;4935515;29;20347;-64